Terminal Aerodrome Forecast
Issued by NWS

Home | Current Version | Previous Version | Graphics & Text | Print | Product List | Glossary On
Versions: 1 2 3 4 5 6 7 8 9 10 11 12 13 14 15 16 17 18 19 20 21 22 23 24 25 26 27 28 29 30 31 32 33 34 35 36 37 38 39
000
FTUS45 KGGW 301100
TAFOLF
TAF
KOLF 301129Z 3012/0112 VRB05KT 1SM FU SCT009 BKN100
      TEMPO 3012/3014 BKN009
     FM301700 VRB06KT 5SM HZ VCSH BKN100
     FM302000 29011KT P6SM VCTS BKN050CB
     FM010000 36009KT P6SM VCSH BKN060=

USA.gov is the U.S. government's official web portal to all federal, state and local government web resources and services.